createdAt,value
2023-03-11T00:00:51.514Z,91.00
2023-03-11T00:03:24.485Z,90.70
2023-03-11T00:05:58.638Z,90.20
2023-03-11T00:08:32.493Z,89.10
2023-03-11T00:11:05.677Z,89.60
2023-03-11T00:13:38.396Z,89.90
2023-03-11T00:16:10.666Z,89.40
2023-03-11T00:18:42.796Z,90.00
2023-03-11T00:21:17.194Z,88.40
2023-03-11T00:23:49.442Z,89.60
2023-03-11T00:26:21.484Z,90.10
2023-03-11T00:28:55.657Z,90.00
2023-03-11T00:31:28.446Z,90.10
2023-03-11T00:34:00.594Z,89.50
2023-03-11T00:36:34.300Z,88.30
2023-03-11T00:39:11.152Z,88.90
2023-03-11T00:41:43.255Z,88.40
2023-03-11T00:44:15.282Z,88.80
2023-03-11T00:46:47.302Z,87.40
2023-03-11T00:49:19.430Z,87.70
2023-03-11T00:51:51.852Z,88.00
2023-03-11T00:54:23.892Z,88.80
2023-03-11T00:56:55.945Z,88.20
2023-03-11T00:59:28.989Z,87.70
2023-03-11T01:02:01.133Z,88.20
2023-03-11T01:04:33.238Z,88.20
2023-03-11T01:07:06.275Z,88.20
2023-03-11T01:09:38.264Z,88.80
2023-03-11T01:12:10.275Z,88.20
2023-03-11T01:14:42.285Z,88.50
2023-03-11T01:17:14.477Z,89.10
2023-03-11T01:19:47.480Z,90.00
2023-03-11T01:22:21.210Z,88.90
2023-03-11T01:24:53.315Z,89.30
2023-03-11T01:27:25.915Z,89.50
2023-03-11T01:29:57.938Z,89.80
2023-03-11T01:32:30.927Z,90.20
2023-03-11T01:35:03.051Z,89.20
2023-03-11T01:37:35.301Z,88.60
2023-03-11T01:40:11.583Z,90.00
2023-03-11T01:42:43.779Z,89.50
2023-03-11T01:45:30.762Z,89.70
2023-03-11T01:48:03.005Z,89.60
2023-03-11T01:50:42.384Z,89.70
2023-03-11T01:53:17.478Z,89.00
2023-03-11T01:55:49.877Z,90.00
2023-03-11T01:58:26.810Z,90.50
2023-03-11T02:01:01.537Z,90.60
2023-03-11T02:03:36.772Z,90.10
2023-03-11T02:06:18.179Z,90.40
2023-03-11T02:08:51.028Z,90.50
2023-03-11T02:11:26.984Z,90.60
2023-03-11T02:14:03.427Z,90.60
2023-03-11T02:16:35.945Z,91.00
2023-03-11T02:19:22.028Z,90.90
2023-03-11T02:21:57.059Z,90.90
2023-03-11T02:24:35.157Z,90.60
2023-03-11T02:27:10.010Z,90.60
2023-03-11T02:29:44.241Z,90.50
2023-03-11T02:32:17.019Z,90.90
2023-03-11T02:34:49.396Z,91.10
2023-03-11T02:37:22.168Z,91.00
2023-03-11T02:40:24.351Z,91.00
2023-03-11T02:43:03.641Z,91.30
2023-03-11T02:45:40.088Z,91.30
2023-03-11T02:48:15.249Z,91.80
2023-03-11T02:50:48.176Z,91.90
2023-03-11T02:53:21.777Z,92.00
2023-03-11T02:55:54.327Z,91.30
2023-03-11T02:58:26.340Z,91.30
2023-03-11T03:01:00.047Z,91.20
2023-03-11T03:03:35.399Z,91.30
2023-03-11T03:06:07.789Z,91.70
2023-03-11T03:08:40.116Z,91.50
2023-03-11T03:11:12.968Z,91.10
2023-03-11T03:13:45.628Z,90.90
2023-03-11T03:16:18.238Z,90.90
2023-03-11T03:18:51.649Z,90.50
2023-03-11T03:21:24.618Z,91.00
2023-03-11T03:23:57.244Z,90.70
2023-03-11T03:26:29.373Z,90.40
2023-03-11T03:29:02.098Z,90.00
2023-03-11T03:31:34.321Z,90.50
2023-03-11T03:34:07.660Z,90.40
2023-03-11T03:36:40.371Z,90.00
2023-03-11T03:39:15.491Z,90.10
2023-03-11T03:41:47.655Z,88.00
2023-03-11T03:44:19.883Z,87.50
2023-03-11T03:46:52.753Z,88.30
2023-03-11T03:49:25.132Z,88.10
2023-03-11T03:51:57.576Z,88.50
2023-03-11T03:54:37.470Z,87.90
2023-03-11T03:57:10.032Z,88.70
2023-03-11T03:59:49.250Z,88.60
2023-03-11T04:02:21.562Z,88.40
2023-03-11T04:04:54.302Z,88.40
2023-03-11T04:07:26.817Z,89.30
2023-03-11T04:09:58.950Z,87.90
2023-03-11T04:12:31.116Z,88.30
2023-03-11T04:15:04.115Z,88.30
2023-03-11T04:17:37.195Z,88.70
2023-03-11T04:20:10.501Z,89.70
2023-03-11T04:22:42.831Z,89.70
2023-03-11T04:25:15.212Z,89.80
2023-03-11T04:27:50.189Z,90.20
2023-03-11T04:30:23.287Z,89.70
2023-03-11T04:33:00.425Z,90.00
2023-03-11T04:35:32.726Z,89.80
2023-03-11T04:38:05.566Z,89.80
2023-03-11T04:40:38.949Z,90.10
2023-03-11T04:43:11.104Z,90.50
2023-03-11T04:45:43.294Z,90.30
2023-03-11T04:48:16.292Z,90.50
2023-03-11T04:50:48.740Z,90.90
2023-03-11T04:53:21.825Z,90.90
2023-03-11T04:55:54.257Z,91.00
2023-03-11T04:58:27.235Z,90.80
2023-03-11T05:01:00.142Z,91.20
2023-03-11T05:03:32.542Z,91.10
2023-03-11T05:06:05.163Z,90.90
2023-03-11T05:08:37.731Z,90.90
2023-03-11T05:11:09.947Z,91.40
2023-03-11T05:13:42.263Z,91.50
2023-03-11T05:16:14.372Z,91.30
2023-03-11T05:18:46.571Z,91.40
2023-03-11T05:21:20.838Z,91.60
2023-03-11T05:23:53.085Z,91.70
2023-03-11T05:26:25.564Z,91.70
2023-03-11T05:28:58.528Z,92.20
2023-03-11T05:31:30.638Z,91.90
2023-03-11T05:34:03.242Z,91.80
2023-03-11T05:36:35.754Z,91.80
2023-03-11T05:39:09.014Z,91.60
2023-03-11T05:41:41.742Z,91.90
2023-03-11T05:44:13.962Z,92.00
2023-03-11T05:46:46.657Z,92.20
2023-03-11T05:49:21.591Z,92.50
2023-03-11T05:51:58.392Z,92.30
2023-03-11T05:54:31.847Z,92.20
2023-03-11T05:57:04.885Z,92.40
2023-03-11T05:59:38.735Z,93.00
2023-03-11T06:02:11.134Z,92.70
2023-03-11T06:04:44.906Z,92.30
2023-03-11T06:07:17.453Z,92.20
2023-03-11T06:09:52.469Z,92.40
2023-03-11T06:12:24.753Z,92.70
2023-03-11T06:15:08.086Z,92.00
2023-03-11T06:17:41.463Z,90.20
2023-03-11T06:20:14.257Z,89.40
2023-03-11T06:22:51.148Z,87.80
2023-03-11T06:25:24.276Z,88.10
2023-03-11T06:27:58.172Z,86.90
2023-03-11T06:30:30.461Z,86.50
2023-03-11T06:33:18.853Z,86.00
2023-03-11T06:35:58.967Z,84.50
2023-03-11T06:38:32.003Z,83.60
2023-03-11T06:41:05.604Z,83.70
2023-03-11T06:43:39.635Z,84.10
2023-03-11T06:46:19.096Z,82.20
2023-03-11T06:48:54.904Z,80.70
2023-03-11T06:51:28.869Z,80.70
2023-03-11T06:54:01.069Z,79.80
2023-03-11T06:56:33.820Z,79.40
2023-03-11T06:59:10.627Z,78.60
2023-03-11T07:01:42.970Z,79.10
2023-03-11T07:04:15.335Z,79.10
2023-03-11T07:06:48.141Z,79.10
2023-03-11T07:09:25.481Z,78.30
2023-03-11T07:11:58.207Z,78.60
2023-03-11T07:14:36.204Z,78.00
2023-03-11T07:17:08.474Z,78.80
2023-03-11T07:19:47.101Z,79.40
2023-03-11T07:22:19.256Z,79.80
2023-03-11T07:24:51.425Z,79.20
2023-03-11T07:27:23.831Z,78.60
2023-03-11T07:29:56.369Z,79.00
2023-03-11T07:32:28.689Z,79.40
2023-03-11T07:35:00.723Z,79.70
2023-03-11T07:37:32.881Z,80.70
2023-03-11T07:40:05.499Z,81.00
2023-03-11T07:42:37.794Z,81.10
2023-03-11T07:45:10.856Z,81.50
2023-03-11T07:47:43.229Z,82.70
2023-03-11T07:50:17.815Z,82.80
2023-03-11T07:52:50.079Z,82.70
2023-03-11T07:55:22.988Z,82.10
2023-03-11T07:57:55.166Z,81.00
2023-03-11T08:00:27.270Z,80.30
2023-03-11T08:02:59.464Z,78.90
2023-03-11T08:05:34.336Z,79.60
2023-03-11T08:08:07.279Z,79.10
2023-03-11T08:10:40.062Z,77.70
2023-03-11T08:13:12.166Z,78.10
2023-03-11T08:15:44.580Z,78.40
2023-03-11T08:18:17.090Z,78.10
2023-03-11T08:20:50.256Z,77.10
2023-03-11T08:23:22.603Z,77.40
2023-03-11T08:25:55.008Z,77.90
2023-03-11T08:28:27.083Z,78.20
2023-03-11T08:30:59.836Z,76.80
2023-03-11T08:33:31.970Z,77.50
2023-03-11T08:36:04.485Z,77.70
2023-03-11T08:38:36.721Z,77.30
2023-03-11T08:41:09.419Z,77.40
2023-03-11T08:43:42.966Z,76.80
2023-03-11T08:46:23.488Z,76.00
2023-03-11T08:48:58.634Z,75.10
2023-03-11T08:51:33.669Z,75.60
2023-03-11T08:54:06.492Z,76.30
2023-03-11T08:56:38.564Z,74.90
2023-03-11T08:59:10.866Z,74.10
2023-03-11T09:01:43.067Z,73.60
2023-03-11T09:04:15.135Z,73.40
2023-03-11T09:06:51.902Z,73.20
2023-03-11T09:09:24.024Z,73.50
2023-03-11T09:11:56.101Z,74.20
2023-03-11T09:14:28.224Z,74.40
2023-03-11T09:17:00.341Z,74.10
2023-03-11T09:19:32.503Z,73.70
2023-03-11T09:22:05.634Z,74.60
2023-03-11T09:24:37.806Z,73.60
2023-03-11T09:27:11.244Z,72.30
2023-03-11T09:29:43.632Z,72.30
2023-03-11T09:32:16.342Z,73.40
2023-03-11T09:34:48.369Z,72.20
2023-03-11T09:37:20.546Z,69.30
2023-03-11T09:39:52.574Z,71.40
2023-03-11T09:42:34.039Z,70.80
2023-03-11T09:45:21.375Z,68.80
2023-03-11T09:48:08.819Z,68.50
2023-03-11T09:50:49.258Z,68.80
2023-03-11T09:53:29.497Z,68.40
2023-03-11T09:56:04.910Z,70.00
2023-03-11T09:58:51.172Z,69.80
2023-03-11T10:01:30.778Z,68.00
2023-03-11T10:04:18.883Z,68.10
2023-03-11T10:06:52.328Z,68.50
2023-03-11T10:09:30.477Z,67.90
2023-03-11T10:12:08.537Z,67.20
2023-03-11T10:14:47.699Z,64.60
2023-03-11T10:17:47.268Z,65.50
2023-03-11T10:20:19.291Z,66.30
2023-03-11T10:23:41.827Z,65.80
2023-03-11T10:26:19.646Z,64.40
2023-03-11T10:29:06.506Z,62.80
2023-03-11T10:31:42.181Z,61.50
2023-03-11T10:34:22.421Z,61.40
2023-03-11T10:37:16.371Z,62.00
2023-03-11T10:39:48.969Z,60.50
2023-03-11T10:42:25.435Z,59.60
2023-03-11T10:44:57.498Z,60.30
2023-03-11T10:47:29.818Z,60.40
2023-03-11T10:50:01.967Z,60.80
2023-03-11T10:52:52.413Z,60.10
2023-03-11T10:55:24.503Z,62.40
2023-03-11T10:58:14.752Z,59.60
2023-03-11T11:00:47.225Z,61.00
2023-03-11T11:03:23.604Z,60.00
2023-03-11T11:06:07.264Z,60.00
2023-03-11T11:08:39.776Z,59.50
2023-03-11T11:11:23.721Z,58.10
2023-03-11T11:13:57.805Z,59.60
2023-03-11T11:16:30.553Z,57.30
2023-03-11T11:19:04.341Z,57.20
2023-03-11T11:21:37.919Z,57.40
2023-03-11T11:24:24.055Z,55.70
2023-03-11T11:27:04.554Z,55.90
2023-03-11T11:29:36.816Z,57.20
2023-03-11T11:32:45.374Z,55.80
2023-03-11T11:35:24.975Z,56.70
2023-03-11T11:38:02.340Z,56.40
2023-03-11T11:40:35.041Z,60.80
2023-03-11T11:43:16.622Z,58.40
2023-03-11T11:46:02.251Z,56.20
2023-03-11T11:48:56.557Z,53.40
2023-03-11T11:51:32.129Z,50.60
2023-03-11T11:54:30.303Z,47.60
2023-03-11T11:57:14.979Z,48.20
2023-03-11T11:59:48.377Z,47.90
2023-03-11T12:02:39.836Z,49.00
2023-03-11T12:05:27.342Z,48.20
2023-03-11T12:08:31.017Z,47.80
2023-03-11T12:11:27.340Z,46.60
2023-03-11T12:14:12.451Z,43.80
2023-03-11T12:17:05.155Z,44.10
2023-03-11T12:19:44.698Z,42.00
2023-03-11T12:22:43.691Z,41.80
2023-03-11T12:25:34.020Z,41.50
2023-03-11T12:28:31.342Z,40.30
2023-03-11T12:31:09.143Z,42.60
2023-03-11T12:33:43.064Z,41.60
2023-03-11T12:36:23.828Z,40.00
2023-03-11T12:38:56.600Z,39.90
2023-03-11T12:41:42.850Z,37.70
2023-03-11T12:44:30.901Z,37.90
2023-03-11T12:47:09.238Z,38.20
2023-03-11T12:49:44.200Z,37.50
2023-03-11T12:52:23.143Z,37.70
2023-03-11T12:55:01.364Z,37.50
2023-03-11T12:57:49.213Z,36.90
2023-03-11T13:00:40.786Z,37.50
2023-03-11T13:03:24.416Z,36.30
2023-03-11T13:06:40.791Z,36.30
2023-03-11T13:09:16.533Z,37.80
2023-03-11T13:11:49.640Z,37.10
2023-03-11T13:14:34.455Z,36.60
2023-03-11T13:17:26.028Z,35.90
2023-03-11T13:19:59.555Z,36.50
2023-03-11T13:23:09.723Z,36.80
2023-03-11T13:25:56.595Z,35.40
2023-03-11T13:28:37.715Z,36.20
2023-03-11T13:31:12.650Z,35.20
2023-03-11T13:33:56.600Z,35.30
2023-03-11T13:36:50.063Z,34.40
2023-03-11T13:39:45.862Z,34.10
2023-03-11T13:42:33.541Z,33.20
2023-03-11T13:45:12.844Z,33.10
2023-03-11T13:47:49.657Z,33.10
2023-03-11T13:50:35.745Z,34.60
2023-03-11T13:53:22.483Z,34.40
2023-03-11T13:55:55.133Z,33.10
2023-03-11T13:58:28.894Z,32.80
2023-03-11T14:01:02.552Z,32.40
2023-03-11T14:03:42.165Z,31.40
2023-03-11T14:06:19.658Z,32.20
2023-03-11T14:08:56.489Z,31.40
2023-03-11T14:11:29.690Z,31.40
2023-03-11T14:14:02.142Z,30.10
2023-03-11T14:16:44.405Z,31.30
2023-03-11T14:19:18.306Z,31.10
2023-03-11T14:21:51.689Z,30.40
2023-03-11T14:24:26.925Z,30.20
2023-03-11T14:27:02.672Z,31.00
2023-03-11T14:32:35.857Z,30.30
2023-03-11T14:35:21.405Z,31.20
2023-03-11T14:37:53.995Z,31.30
2023-03-11T14:40:32.223Z,31.10
2023-03-11T14:43:07.833Z,31.10
2023-03-11T14:45:42.514Z,31.30
2023-03-11T14:48:31.520Z,31.60
2023-03-11T14:51:07.568Z,31.70
2023-03-11T14:53:47.861Z,30.70
2023-03-11T14:56:24.157Z,31.50
2023-03-11T14:59:12.519Z,34.40
2023-03-11T15:01:48.054Z,36.20
2023-03-11T15:04:32.922Z,37.80
2023-03-11T15:07:05.730Z,40.00
2023-03-11T15:09:40.988Z,41.40
2023-03-11T15:12:42.930Z,42.60
2023-03-11T15:15:27.545Z,43.20
2023-03-11T15:18:01.238Z,43.60
2023-03-11T15:20:34.922Z,45.30
2023-03-11T15:23:17.343Z,47.60
2023-03-11T15:25:50.282Z,47.50
2023-03-11T15:28:25.626Z,48.70
2023-03-11T15:31:16.866Z,48.00
2023-03-11T15:33:51.796Z,49.40
2023-03-11T15:36:39.748Z,50.10
2023-03-11T15:39:25.935Z,50.60
2023-03-11T15:42:01.345Z,52.60
2023-03-11T15:44:41.840Z,52.70
2023-03-11T15:47:14.983Z,53.90
2023-03-11T15:49:47.508Z,53.80
2023-03-11T15:52:21.067Z,53.90
2023-03-11T15:54:56.006Z,54.50
2023-03-11T15:57:30.012Z,54.10
2023-03-11T16:00:03.075Z,54.10
2023-03-11T16:02:39.172Z,54.80
2023-03-11T16:05:17.306Z,55.80
2023-03-11T16:07:49.776Z,55.30
2023-03-11T16:10:29.150Z,56.00
2023-03-11T16:13:01.242Z,57.10
2023-03-11T16:15:36.346Z,57.90
2023-03-11T16:18:08.929Z,58.60
2023-03-11T16:20:50.144Z,58.10
2023-03-11T16:23:28.726Z,58.90
2023-03-11T16:26:03.895Z,59.10
2023-03-11T16:28:36.340Z,58.90
2023-03-11T16:31:09.656Z,59.20
2023-03-11T16:33:41.869Z,59.80
2023-03-11T16:36:14.067Z,59.70
2023-03-11T16:38:49.468Z,59.80
2023-03-11T16:41:21.553Z,61.00
2023-03-11T16:43:54.157Z,60.20
2023-03-11T16:46:27.183Z,60.30
2023-03-11T16:48:59.233Z,60.60
2023-03-11T16:51:31.749Z,61.30
2023-03-11T16:54:03.920Z,61.80
2023-03-11T16:56:36.449Z,62.30
2023-03-11T16:59:08.822Z,62.30
2023-03-11T17:01:41.389Z,62.50
2023-03-11T17:04:13.599Z,62.90
2023-03-11T17:06:45.695Z,62.50
2023-03-11T17:09:17.965Z,62.80
2023-03-11T17:11:51.118Z,62.10
2023-03-11T17:14:24.813Z,62.20
2023-03-11T17:16:57.189Z,62.70
2023-03-11T17:19:31.002Z,62.80
2023-03-11T17:22:03.140Z,63.00
2023-03-11T17:24:36.125Z,63.10
2023-03-11T17:27:08.375Z,63.00
2023-03-11T17:29:40.451Z,63.30
2023-03-11T17:32:17.339Z,63.10
2023-03-11T17:34:49.806Z,63.20
2023-03-11T17:37:22.513Z,63.40
2023-03-11T17:39:54.842Z,64.50
2023-03-11T17:42:27.375Z,64.00
2023-03-11T17:44:59.525Z,64.30
2023-03-11T17:47:33.195Z,64.60
2023-03-11T17:50:06.239Z,64.40
2023-03-11T17:52:38.279Z,64.50
2023-03-11T17:55:10.624Z,64.50
2023-03-11T17:57:45.826Z,65.40
2023-03-11T18:00:18.492Z,64.10
2023-03-11T18:02:53.805Z,64.20
2023-03-11T18:05:26.107Z,64.80
2023-03-11T18:07:58.801Z,64.10
2023-03-11T18:10:30.965Z,64.40
2023-03-11T18:13:03.355Z,63.80
2023-03-11T18:15:35.489Z,64.50
2023-03-11T18:18:07.824Z,65.50
2023-03-11T18:20:40.964Z,65.20
2023-03-11T18:23:13.327Z,64.90
2023-03-11T18:25:50.680Z,65.00
2023-03-11T18:28:23.322Z,65.20
2023-03-11T18:30:55.619Z,64.90
2023-03-11T18:33:27.989Z,64.90
2023-03-11T18:36:00.360Z,65.30
2023-03-11T18:38:32.471Z,65.10
2023-03-11T18:41:04.889Z,65.70
2023-03-11T18:43:37.868Z,66.50
2023-03-11T18:46:13.683Z,66.90
2023-03-11T18:48:46.606Z,66.40
2023-03-11T18:51:18.636Z,66.60
2023-03-11T18:53:50.728Z,66.40
2023-03-11T18:56:22.994Z,67.50
2023-03-11T18:58:56.100Z,67.70
2023-03-11T19:01:28.765Z,67.90
2023-03-11T19:04:00.933Z,68.10
2023-03-11T19:06:33.197Z,69.00
2023-03-11T19:09:06.806Z,68.40
2023-03-11T19:11:38.732Z,68.50
2023-03-11T19:14:11.353Z,69.50
2023-03-11T19:16:44.002Z,69.30
2023-03-11T19:19:16.183Z,69.60
2023-03-11T19:21:48.565Z,70.30
2023-03-11T19:24:20.728Z,70.60
2023-03-11T19:26:52.720Z,70.90
2023-03-11T19:29:26.915Z,71.30
2023-03-11T19:31:59.036Z,71.30
2023-03-11T19:34:31.154Z,71.40
2023-03-11T19:37:03.138Z,71.40
2023-03-11T19:39:35.089Z,72.00
2023-03-11T19:42:07.108Z,72.50
2023-03-11T19:44:39.292Z,72.40
2023-03-11T19:47:11.453Z,72.30
2023-03-11T19:49:43.846Z,72.80
2023-03-11T19:52:16.660Z,72.50
2023-03-11T19:54:49.424Z,72.80
2023-03-11T19:57:21.479Z,72.90
2023-03-11T19:59:55.570Z,72.90
2023-03-11T20:02:27.665Z,73.40
2023-03-11T20:05:00.661Z,74.10
2023-03-11T20:07:33.894Z,74.30
2023-03-11T20:10:06.457Z,74.40
2023-03-11T20:12:39.367Z,74.30
2023-03-11T20:15:12.939Z,74.20
2023-03-11T20:17:45.099Z,74.90
2023-03-11T20:20:17.978Z,75.20
2023-03-11T20:22:50.073Z,75.40
2023-03-11T20:25:22.562Z,75.70
2023-03-11T20:27:54.558Z,75.60
2023-03-11T20:30:27.294Z,76.50
2023-03-11T20:32:59.547Z,77.30
2023-03-11T20:39:10.797Z,77.60
2023-03-11T20:41:43.880Z,77.20
2023-03-11T20:44:16.278Z,77.70
2023-03-11T20:46:49.579Z,78.00
2023-03-11T20:49:21.740Z,77.90
2023-03-11T20:51:54.395Z,78.10
2023-03-11T20:54:26.591Z,78.50
2023-03-11T20:56:59.137Z,78.90
2023-03-11T20:59:31.492Z,79.10
2023-03-11T21:02:03.955Z,78.50
2023-03-11T21:04:40.122Z,78.70
2023-03-11T21:07:12.452Z,79.30
2023-03-11T21:09:44.507Z,79.50
2023-03-11T21:12:16.694Z,80.10
2023-03-11T21:14:48.788Z,80.50
2023-03-11T21:17:21.176Z,80.40
2023-03-11T21:19:54.253Z,80.60
2023-03-11T21:22:26.619Z,80.60
2023-03-11T21:24:59.455Z,80.30
2023-03-11T21:27:31.809Z,80.50
2023-03-11T21:30:04.309Z,79.70
2023-03-11T21:32:36.703Z,79.60
2023-03-11T21:35:09.548Z,79.50
2023-03-11T21:37:41.802Z,79.50
2023-03-11T21:40:14.386Z,80.00
2023-03-11T21:42:46.755Z,80.00
2023-03-11T21:45:19.128Z,80.00
2023-03-11T21:47:51.237Z,79.90
2023-03-11T21:50:23.990Z,79.80
2023-03-11T21:52:56.151Z,79.80
2023-03-11T21:55:28.609Z,80.00
2023-03-11T21:58:00.815Z,80.20
2023-03-11T22:00:33.113Z,80.30
2023-03-11T22:03:06.154Z,81.40
2023-03-11T22:05:38.474Z,81.90
2023-03-11T22:08:11.537Z,82.00
2023-03-11T22:10:43.869Z,82.10
2023-03-11T22:13:16.060Z,82.40
2023-03-11T22:15:48.332Z,82.60
2023-03-11T22:18:20.616Z,83.10
2023-03-11T22:20:53.074Z,83.40
2023-03-11T22:23:25.371Z,83.60
2023-03-11T22:25:57.923Z,83.90
2023-03-11T22:28:30.982Z,84.00
2023-03-11T22:31:12.514Z,83.30
2023-03-11T22:33:44.902Z,83.70
2023-03-11T22:36:17.521Z,85.60
2023-03-11T22:38:49.842Z,87.40
2023-03-11T22:41:21.945Z,88.80
2023-03-11T22:43:54.005Z,90.00
2023-03-11T22:46:26.546Z,90.50
2023-03-11T22:48:59.954Z,91.50
2023-03-11T22:51:32.409Z,91.70
2023-03-11T22:54:04.486Z,91.80
2023-03-11T22:56:37.572Z,91.50
2023-03-11T22:59:10.070Z,90.50
2023-03-11T23:01:42.578Z,90.60
2023-03-11T23:04:15.233Z,90.30
2023-03-11T23:06:47.569Z,90.70
2023-03-11T23:09:19.827Z,91.40
2023-03-11T23:11:52.812Z,91.20
2023-03-11T23:14:37.780Z,91.40
2023-03-11T23:17:15.300Z,90.90
2023-03-11T23:19:47.318Z,92.20
2023-03-11T23:22:19.587Z,93.30
2023-03-11T23:24:51.917Z,94.20
2023-03-11T23:27:24.014Z,94.00
2023-03-11T23:29:56.014Z,94.60
2023-03-11T23:32:28.175Z,95.00
2023-03-11T23:35:00.428Z,94.40
2023-03-11T23:37:33.096Z,94.10
2023-03-11T23:40:05.858Z,94.00
2023-03-11T23:42:37.897Z,94.20
2023-03-11T23:45:11.177Z,94.50
2023-03-11T23:47:43.532Z,95.20
2023-03-11T23:50:16.028Z,96.00
2023-03-11T23:52:48.178Z,96.00
2023-03-11T23:55:20.143Z,96.20
2023-03-11T23:57:52.223Z,95.80
